Zhumadian, China
Current Conditions -  °F | °C
As of 11:00 PM on Thursday 18 Dec 2014 (Local Time) from ZHCC Reporting Station
Clear Clear  
Wind Chill: 38°   Ceiling: Unl
Heat Index: 41°   Visibility: 6mi
Dew Point: 21°   Wind: 4mph
Humidity: 45%   Direction: 180°S
Pressure: 30.3"   Gusts: NA
Location:  32.97°N, 114.05°E
Report Text: ZHCC 181500Z 18002MPS 160V220 CAVOK 05/M06 Q1026 NOSIG
Loading
Personal Weather Stations






























Interactive Weather Map New forecast layout! Learn more

10-Day Weather Forecast

Advertisements
Track Severe Weather on mobile